sensor_id;sensor_type;location;lat;lon;timestamp;P1;P2;P0
73973;PMS5003;62336;-26.094;27.994;2023-03-01T00:00:33;18;18;
73973;PMS5003;62336;-26.094;27.994;2023-03-01T00:03:01;21;21;
73973;PMS5003;62336;-26.094;27.994;2023-03-01T00:05:25;20;19;
73973;PMS5003;62336;-26.094;27.994;2023-03-01T02:18:17;20;20;
73973;PMS5003;62336;-26.094;27.994;2023-03-01T02:20:44;22;19;
73973;PMS5003;62336;-26.094;27.994;2023-03-01T02:23:08;25;24;
73973;PMS5003;62336;-26.094;27.994;2023-03-01T02:25:35;19;18;
73973;PMS5003;62336;-26.094;27.994;2023-03-01T02:28:00;16;16;
73973;PMS5003;62336;-26.094;27.994;2023-03-01T02:30:24;16;16;
73973;PMS5003;62336;-26.094;27.994;2023-03-01T02:32:49;17;17;
73973;PMS5003;62336;-26.094;27.994;2023-03-01T02:35:15;17;16;
73973;PMS5003;62336;-26.094;27.994;2023-03-01T02:37:40;17;17;
73973;PMS5003;62336;-26.094;27.994;2023-03-01T02:40:07;17;16;
73973;PMS5003;62336;-26.094;27.994;2023-03-01T02:42:33;17;16;
73973;PMS5003;62336;-26.094;27.994;2023-03-01T02:44:57;16;16;
73973;PMS5003;62336;-26.094;27.994;2023-03-01T02:47:22;13;13;
73973;PMS5003;62336;-26.094;27.994;2023-03-01T02:49:47;15;14;
73973;PMS5003;62336;-26.094;27.994;2023-03-01T02:52:16;15;14;
73973;PMS5003;62336;-26.094;27.994;2023-03-01T02:54:39;15;15;
73973;PMS5003;62336;-26.094;27.994;2023-03-01T02:57:03;15;13;
73973;PMS5003;62336;-26.094;27.994;2023-03-01T02:59:29;13;13;
73973;PMS5003;62336;-26.094;27.994;2023-03-01T03:01:54;14;12;
73973;PMS5003;62336;-26.094;27.994;2023-03-01T03:04:19;17;16;
73973;PMS5003;62336;-26.094;27.994;2023-03-01T03:06:44;14;13;
73973;PMS5003;62336;-26.094;27.994;2023-03-01T03:09:10;14;14;
73973;PMS5003;62336;-26.094;27.994;2023-03-01T03:11:35;16;14;
73973;PMS5003;62336;-26.094;27.994;2023-03-01T03:14:00;13;13;
73973;PMS5003;62336;-26.094;27.994;2023-03-01T03:16:25;12;11;
73973;PMS5003;62336;-26.094;27.994;2023-03-01T03:18:50;13;13;
73973;PMS5003;62336;-26.094;27.994;2023-03-01T03:21:16;12;11;
73973;PMS5003;62336;-26.094;27.994;2023-03-01T03:23:40;14;13;
73973;PMS5003;62336;-26.094;27.994;2023-03-01T03:26:06;13;12;
73973;PMS5003;62336;-26.094;27.994;2023-03-01T03:28:31;11;11;
73973;PMS5003;62336;-26.094;27.994;2023-03-01T03:30:56;17;16;
73973;PMS5003;62336;-26.094;27.994;2023-03-01T03:33:21;13;13;
73973;PMS5003;62336;-26.094;27.994;2023-03-01T03:35:46;15;14;
73973;PMS5003;62336;-26.094;27.994;2023-03-01T03:38:12;14;14;
73973;PMS5003;62336;-26.094;27.994;2023-03-01T03:40:37;14;14;
73973;PMS5003;62336;-26.094;27.994;2023-03-01T03:43:08;13;13;
73973;PMS5003;62336;-26.094;27.994;2023-03-01T03:45:27;13;13;
73973;PMS5003;62336;-26.094;27.994;2023-03-01T03:47:53;13;11;
73973;PMS5003;62336;-26.094;27.994;2023-03-01T03:50:18;14;13;
73973;PMS5003;62336;-26.094;27.994;2023-03-01T03:52:43;18;16;
73973;PMS5003;62336;-26.094;27.994;2023-03-01T03:55:10;12;12;
73973;PMS5003;62336;-26.094;27.994;2023-03-01T03:57:34;14;13;
73973;PMS5003;62336;-26.094;27.994;2023-03-01T03:59:59;13;13;
73973;PMS5003;62336;-26.094;27.994;2023-03-01T04:02:25;10;10;
73973;PMS5003;62336;-26.094;27.994;2023-03-01T04:04:49;11;11;
73973;PMS5003;62336;-26.094;27.994;2023-03-01T04:07:15;11;11;
73973;PMS5003;62336;-26.094;27.994;2023-03-01T04:09:40;14;11;
73973;PMS5003;62336;-26.094;27.994;2023-03-01T04:12:05;10;10;
73973;PMS5003;62336;-26.094;27.994;2023-03-01T04:14:30;11;11;
73973;PMS5003;62336;-26.094;27.994;2023-03-01T04:16:56;14;12;
73973;PMS5003;62336;-26.094;27.994;2023-03-01T04:19:21;9;9;
73973;PMS5003;62336;-26.094;27.994;2023-03-01T04:21:46;13;12;
73973;PMS5003;62336;-26.094;27.994;2023-03-01T04:24:12;14;14;
73973;PMS5003;62336;-26.094;27.994;2023-03-01T04:26:37;11;11;
73973;PMS5003;62336;-26.094;27.994;2023-03-01T04:29:01;13;12;
73973;PMS5003;62336;-26.094;27.994;2023-03-01T04:31:27;13;13;
73973;PMS5003;62336;-26.094;27.994;2023-03-01T04:33:53;9;9;
73973;PMS5003;62336;-26.094;27.994;2023-03-01T04:36:18;17;16;
73973;PMS5003;62336;-26.094;27.994;2023-03-01T04:38:44;13;12;
73973;PMS5003;62336;-26.094;27.994;2023-03-01T04:41:09;13;11;
73973;PMS5003;62336;-26.094;27.994;2023-03-01T04:43:34;16;16;
73973;PMS5003;62336;-26.094;27.994;2023-03-01T04:46:00;14;13;
73973;PMS5003;62336;-26.094;27.994;2023-03-01T04:48:26;14;13;
73973;PMS5003;62336;-26.094;27.994;2023-03-01T04:50:51;10;10;
73973;PMS5003;62336;-26.094;27.994;2023-03-01T04:53:16;15;14;
73973;PMS5003;62336;-26.094;27.994;2023-03-01T04:55:41;14;13;
73973;PMS5003;62336;-26.094;27.994;2023-03-01T04:58:06;17;16;
73973;PMS5003;62336;-26.094;27.994;2023-03-01T05:00:31;12;11;
73973;PMS5003;62336;-26.094;27.994;2023-03-01T05:02:57;11;11;
73973;PMS5003;62336;-26.094;27.994;2023-03-01T05:05:23;13;13;
73973;PMS5003;62336;-26.094;27.994;2023-03-01T05:07:47;13;11;
73973;PMS5003;62336;-26.094;27.994;2023-03-01T05:10:12;11;11;
73973;PMS5003;62336;-26.094;27.994;2023-03-01T05:12:37;14;14;
73973;PMS5003;62336;-26.094;27.994;2023-03-01T05:15:03;12;12;
73973;PMS5003;62336;-26.094;27.994;2023-03-01T05:17:29;12;11;
73973;PMS5003;62336;-26.094;27.994;2023-03-01T05:19:54;11;9;
73973;PMS5003;62336;-26.094;27.994;2023-03-01T05:22:20;13;12;
73973;PMS5003;62336;-26.094;27.994;2023-03-01T05:24:46;11;11;
73973;PMS5003;62336;-26.094;27.994;2023-03-01T05:27:11;11;11;
73973;PMS5003;62336;-26.094;27.994;2023-03-01T05:29:36;13;11;
73973;PMS5003;62336;-26.094;27.994;2023-03-01T05:32:03;12;12;
73973;PMS5003;62336;-26.094;27.994;2023-03-01T05:34:29;11;11;
73973;PMS5003;62336;-26.094;27.994;2023-03-01T05:36:54;17;13;
73973;PMS5003;62336;-26.094;27.994;2023-03-01T05:39:19;13;12;
73973;PMS5003;62336;-26.094;27.994;2023-03-01T05:41:43;11;10;
73973;PMS5003;62336;-26.094;27.994;2023-03-01T05:44:10;11;10;
73973;PMS5003;62336;-26.094;27.994;2023-03-01T05:46:36;12;11;
73973;PMS5003;62336;-26.094;27.994;2023-03-01T05:49:01;12;12;
73973;PMS5003;62336;-26.094;27.994;2023-03-01T05:51:27;12;9;
73973;PMS5003;62336;-26.094;27.994;2023-03-01T05:53:53;12;10;
73973;PMS5003;62336;-26.094;27.994;2023-03-01T05:56:18;11;10;
73973;PMS5003;62336;-26.094;27.994;2023-03-01T05:58:44;10;10;
73973;PMS5003;62336;-26.094;27.994;2023-03-01T06:01:11;11;11;
73973;PMS5003;62336;-26.094;27.994;2023-03-01T06:03:35;12;12;
73973;PMS5003;62336;-26.094;27.994;2023-03-01T06:06:00;11;11;
73973;PMS5003;62336;-26.094;27.994;2023-03-01T06:08:25;15;14;
73973;PMS5003;62336;-26.094;27.994;2023-03-01T06:10:50;17;16;
73973;PMS5003;62336;-26.094;27.994;2023-03-01T06:13:16;13;12;
73973;PMS5003;62336;-26.094;27.994;2023-03-01T06:15:41;13;12;
73973;PMS5003;62336;-26.094;27.994;2023-03-01T06:18:06;12;12;
73973;PMS5003;62336;-26.094;27.994;2023-03-01T06:20:32;12;12;
73973;PMS5003;62336;-26.094;27.994;2023-03-01T06:22:57;13;11;
73973;PMS5003;62336;-26.094;27.994;2023-03-01T06:25:24;14;13;
73973;PMS5003;62336;-26.094;27.994;2023-03-01T06:27:48;13;12;
73973;PMS5003;62336;-26.094;27.994;2023-03-01T06:30:15;19;18;
73973;PMS5003;62336;-26.094;27.994;2023-03-01T06:32:39;16;15;
73973;PMS5003;62336;-26.094;27.994;2023-03-01T06:35:05;13;13;
73973;PMS5003;62336;-26.094;27.994;2023-03-01T06:37:30;14;14;
73973;PMS5003;62336;-26.094;27.994;2023-03-01T06:39:55;16;15;
73973;PMS5003;62336;-26.094;27.994;2023-03-01T06:42:20;19;19;
73973;PMS5003;62336;-26.094;27.994;2023-03-01T06:44:46;13;13;
73973;PMS5003;62336;-26.094;27.994;2023-03-01T06:47:11;17;16;
73973;PMS5003;62336;-26.094;27.994;2023-03-01T06:49:36;18;17;
73973;PMS5003;62336;-26.094;27.994;2023-03-01T06:52:02;15;14;
73973;PMS5003;62336;-26.094;27.994;2023-03-01T06:54:27;13;13;
73973;PMS5003;62336;-26.094;27.994;2023-03-01T06:56:52;13;12;
73973;PMS5003;62336;-26.094;27.994;2023-03-01T06:59:17;16;15;
73973;PMS5003;62336;-26.094;27.994;2023-03-01T07:01:43;19;16;
73973;PMS5003;62336;-26.094;27.994;2023-03-01T07:04:09;12;12;
73973;PMS5003;62336;-26.094;27.994;2023-03-01T07:06:34;15;15;
73973;PMS5003;62336;-26.094;27.994;2023-03-01T07:09:00;17;15;
73973;PMS5003;62336;-26.094;27.994;2023-03-01T07:11:25;12;11;
73973;PMS5003;62336;-26.094;27.994;2023-03-01T07:13:51;14;13;
73973;PMS5003;62336;-26.094;27.994;2023-03-01T07:16:16;12;11;
73973;PMS5003;62336;-26.094;27.994;2023-03-01T07:18:42;12;12;
73973;PMS5003;62336;-26.094;27.994;2023-03-01T07:21:08;14;14;
73973;PMS5003;62336;-26.094;27.994;2023-03-01T07:23:33;14;13;
73973;PMS5003;62336;-26.094;27.994;2023-03-01T07:25:59;12;12;
73973;PMS5003;62336;-26.094;27.994;2023-03-01T07:28:24;13;13;
73973;PMS5003;62336;-26.094;27.994;2023-03-01T07:30:49;15;15;
73973;PMS5003;62336;-26.094;27.994;2023-03-01T07:33:14;15;15;
73973;PMS5003;62336;-26.094;27.994;2023-03-01T07:35:39;16;15;
73973;PMS5003;62336;-26.094;27.994;2023-03-01T07:38:05;16;16;
73973;PMS5003;62336;-26.094;27.994;2023-03-01T07:40:30;14;14;
73973;PMS5003;62336;-26.094;27.994;2023-03-01T07:42:55;19;18;
73973;PMS5003;62336;-26.094;27.994;2023-03-01T07:45:20;15;15;
73973;PMS5003;62336;-26.094;27.994;2023-03-01T07:47:46;16;16;
73973;PMS5003;62336;-26.094;27.994;2023-03-01T07:50:11;16;15;
73973;PMS5003;62336;-26.094;27.994;2023-03-01T07:52:36;19;18;
73973;PMS5003;62336;-26.094;27.994;2023-03-01T07:55:02;23;23;
73973;PMS5003;62336;-26.094;27.994;2023-03-01T07:57:28;23;23;
73973;PMS5003;62336;-26.094;27.994;2023-03-01T07:59:53;25;23;
73973;PMS5003;62336;-26.094;27.994;2023-03-01T08:02:18;30;28;
73973;PMS5003;62336;-26.094;27.994;2023-03-01T08:04:43;21;21;
73973;PMS5003;62336;-26.094;27.994;2023-03-01T08:07:08;26;25;
73973;PMS5003;62336;-26.094;27.994;2023-03-01T08:09:34;26;24;
73973;PMS5003;62336;-26.094;27.994;2023-03-01T08:11:58;25;24;
73973;PMS5003;62336;-26.094;27.994;2023-03-01T08:14:25;25;23;
73973;PMS5003;62336;-26.094;27.994;2023-03-01T08:16:50;28;27;
73973;PMS5003;62336;-26.094;27.994;2023-03-01T08:19:16;30;29;
73973;PMS5003;62336;-26.094;27.994;2023-03-01T08:21:41;29;27;
73973;PMS5003;62336;-26.094;27.994;2023-03-01T08:24:07;24;23;
73973;PMS5003;62336;-26.094;27.994;2023-03-01T08:26:33;21;20;
73973;PMS5003;62336;-26.094;27.994;2023-03-01T08:28:57;18;17;
73973;PMS5003;62336;-26.094;27.994;2023-03-01T08:31:23;18;17;
73973;PMS5003;62336;-26.094;27.994;2023-03-01T08:33:49;17;17;
73973;PMS5003;62336;-26.094;27.994;2023-03-01T08:36:13;14;13;
73973;PMS5003;62336;-26.094;27.994;2023-03-01T08:38:38;16;14;
73973;PMS5003;62336;-26.094;27.994;2023-03-01T08:41:03;15;14;
73973;PMS5003;62336;-26.094;27.994;2023-03-01T08:43:29;16;15;
73973;PMS5003;62336;-26.094;27.994;2023-03-01T08:45:54;15;15;
73973;PMS5003;62336;-26.094;27.994;2023-03-01T08:48:19;18;18;
73973;PMS5003;62336;-26.094;27.994;2023-03-01T08:50:45;13;12;
73973;PMS5003;62336;-26.094;27.994;2023-03-01T08:53:10;18;16;
73973;PMS5003;62336;-26.094;27.994;2023-03-01T08:55:38;15;15;
73973;PMS5003;62336;-26.094;27.994;2023-03-01T08:58:01;11;11;
73973;PMS5003;62336;-26.094;27.994;2023-03-01T09:00:26;13;13;
73973;PMS5003;62336;-26.094;27.994;2023-03-01T09:02:51;14;13;
73973;PMS5003;62336;-26.094;27.994;2023-03-01T09:05:16;13;12;
73973;PMS5003;62336;-26.094;27.994;2023-03-01T09:07:41;16;14;
73973;PMS5003;62336;-26.094;27.994;2023-03-01T09:10:08;20;19;
73973;PMS5003;62336;-26.094;27.994;2023-03-01T09:12:32;16;15;
73973;PMS5003;62336;-26.094;27.994;2023-03-01T09:14:57;15;14;
73973;PMS5003;62336;-26.094;27.994;2023-03-01T09:17:24;16;15;
73973;PMS5003;62336;-26.094;27.994;2023-03-01T09:19:49;16;14;
73973;PMS5003;62336;-26.094;27.994;2023-03-01T09:22:14;13;12;
73973;PMS5003;62336;-26.094;27.994;2023-03-01T09:24:39;17;17;
73973;PMS5003;62336;-26.094;27.994;2023-03-01T09:27:04;12;12;
73973;PMS5003;62336;-26.094;27.994;2023-03-01T09:29:29;12;12;
73973;PMS5003;62336;-26.094;27.994;2023-03-01T09:31:55;13;12;
73973;PMS5003;62336;-26.094;27.994;2023-03-01T09:34:20;10;10;
73973;PMS5003;62336;-26.094;27.994;2023-03-01T09:36:45;13;11;
73973;PMS5003;62336;-26.094;27.994;2023-03-01T09:39:10;12;12;
73973;PMS5003;62336;-26.094;27.994;2023-03-01T09:41:45;12;11;
73973;PMS5003;62336;-26.094;27.994;2023-03-01T09:44:01;9;8;
73973;PMS5003;62336;-26.094;27.994;2023-03-01T09:46:25;13;9;
73973;PMS5003;62336;-26.094;27.994;2023-03-01T09:48:51;9;9;
73973;PMS5003;62336;-26.094;27.994;2023-03-01T09:51:17;9;8;
73973;PMS5003;62336;-26.094;27.994;2023-03-01T09:53:40;11;11;
73973;PMS5003;62336;-26.094;27.994;2023-03-01T09:56:13;8;7;
73973;PMS5003;62336;-26.094;27.994;2023-03-01T09:58:35;8;7;
73973;PMS5003;62336;-26.094;27.994;2023-03-01T10:00:58;9;8;
73973;PMS5003;62336;-26.094;27.994;2023-03-01T10:03:22;7;7;
73973;PMS5003;62336;-26.094;27.994;2023-03-01T10:05:49;7;7;
73973;PMS5003;62336;-26.094;27.994;2023-03-01T10:10:38;7;6;
73973;PMS5003;62336;-26.094;27.994;2023-03-01T10:13:04;7;7;
73973;PMS5003;62336;-26.094;27.994;2023-03-01T10:15:30;8;8;
73973;PMS5003;62336;-26.094;27.994;2023-03-01T10:17:53;10;8;
73973;PMS5003;62336;-26.094;27.994;2023-03-01T10:20:19;9;9;
73973;PMS5003;62336;-26.094;27.994;2023-03-01T10:22:42;5;5;
73973;PMS5003;62336;-26.094;27.994;2023-03-01T10:25:08;11;11;
73973;PMS5003;62336;-26.094;27.994;2023-03-01T10:27:35;9;8;
73973;PMS5003;62336;-26.094;27.994;2023-03-01T10:29:59;11;10;
73973;PMS5003;62336;-26.094;27.994;2023-03-01T10:32:23;7;7;
73973;PMS5003;62336;-26.094;27.994;2023-03-01T10:34:48;6;5;
73973;PMS5003;62336;-26.094;27.994;2023-03-01T10:37:14;7;6;
73973;PMS5003;62336;-26.094;27.994;2023-03-01T10:42:04;9;8;
73973;PMS5003;62336;-26.094;27.994;2023-03-01T10:44:36;10;7;
73973;PMS5003;62336;-26.094;27.994;2023-03-01T10:46:59;9;9;
73973;PMS5003;62336;-26.094;27.994;2023-03-01T10:49:20;7;7;
73973;PMS5003;62336;-26.094;27.994;2023-03-01T10:51:44;7;7;
73973;PMS5003;62336;-26.094;27.994;2023-03-01T10:59:00;14;13;
73973;PMS5003;62336;-26.094;27.994;2023-03-01T11:01:26;9;9;
73973;PMS5003;62336;-26.094;27.994;2023-03-01T11:06:20;13;13;
73973;PMS5003;62336;-26.094;27.994;2023-03-01T11:08:42;12;12;
73973;PMS5003;62336;-26.094;27.994;2023-03-01T11:11:12;14;13;
73973;PMS5003;62336;-26.094;27.994;2023-03-01T11:13:32;12;12;
73973;PMS5003;62336;-26.094;27.994;2023-03-01T11:15:59;13;13;
73973;PMS5003;62336;-26.094;27.994;2023-03-01T11:18:23;12;11;
73973;PMS5003;62336;-26.094;27.994;2023-03-01T11:20:48;12;11;
73973;PMS5003;62336;-26.094;27.994;2023-03-01T11:23:14;17;16;
73973;PMS5003;62336;-26.094;27.994;2023-03-01T11:25:40;17;14;
73973;PMS5003;62336;-26.094;27.994;2023-03-01T11:28:06;16;15;
73973;PMS5003;62336;-26.094;27.994;2023-03-01T11:30:32;19;19;
73973;PMS5003;62336;-26.094;27.994;2023-03-01T11:33:01;19;16;
73973;PMS5003;62336;-26.094;27.994;2023-03-01T11:35:22;20;18;
73973;PMS5003;62336;-26.094;27.994;2023-03-01T11:37:51;18;17;
73973;PMS5003;62336;-26.094;27.994;2023-03-01T11:40:14;19;18;
73973;PMS5003;62336;-26.094;27.994;2023-03-01T11:42:42;17;16;
73973;PMS5003;62336;-26.094;27.994;2023-03-01T11:45:08;18;17;
73973;PMS5003;62336;-26.094;27.994;2023-03-01T11:47:32;19;17;
73973;PMS5003;62336;-26.094;27.994;2023-03-01T11:49:58;9;9;
73973;PMS5003;62336;-26.094;27.994;2023-03-01T11:52:22;15;15;
73973;PMS5003;62336;-26.094;27.994;2023-03-01T11:54:49;14;13;
73973;PMS5003;62336;-26.094;27.994;2023-03-01T11:57:13;8;8;
73973;PMS5003;62336;-26.094;27.994;2023-03-01T11:59:41;8;8;
73973;PMS5003;62336;-26.094;27.994;2023-03-01T12:04:35;12;11;
73973;PMS5003;62336;-26.094;27.994;2023-03-01T12:06:52;9;9;
73973;PMS5003;62336;-26.094;27.994;2023-03-01T12:09:23;8;7;
73973;PMS5003;62336;-26.094;27.994;2023-03-01T12:11:50;9;9;
73973;PMS5003;62336;-26.094;27.994;2023-03-01T12:14:15;6;6;
73973;PMS5003;62336;-26.094;27.994;2023-03-01T12:16:35;11;11;
73973;PMS5003;62336;-26.094;27.994;2023-03-01T12:19:01;11;11;
73973;PMS5003;62336;-26.094;27.994;2023-03-01T12:21:26;14;13;
73973;PMS5003;62336;-26.094;27.994;2023-03-01T12:23:51;10;10;
73973;PMS5003;62336;-26.094;27.994;2023-03-01T12:26:14;9;9;
73973;PMS5003;62336;-26.094;27.994;2023-03-01T12:28:40;12;12;
73973;PMS5003;62336;-26.094;27.994;2023-03-01T12:31:08;11;10;
73973;PMS5003;62336;-26.094;27.994;2023-03-01T12:33:30;12;12;
73973;PMS5003;62336;-26.094;27.994;2023-03-01T12:35:58;9;8;
73973;PMS5003;62336;-26.094;27.994;2023-03-01T12:38:22;10;10;
73973;PMS5003;62336;-26.094;27.994;2023-03-01T12:40:48;9;9;
73973;PMS5003;62336;-26.094;27.994;2023-03-01T12:43:10;10;9;
73973;PMS5003;62336;-26.094;27.994;2023-03-01T12:45:39;8;7;
73973;PMS5003;62336;-26.094;27.994;2023-03-01T12:48:02;8;8;
73973;PMS5003;62336;-26.094;27.994;2023-03-01T12:50:25;10;10;
73973;PMS5003;62336;-26.094;27.994;2023-03-01T12:52:50;10;9;
73973;PMS5003;62336;-26.094;27.994;2023-03-01T12:55:18;9;9;
73973;PMS5003;62336;-26.094;27.994;2023-03-01T12:57:40;7;7;
73973;PMS5003;62336;-26.094;27.994;2023-03-01T13:00:09;9;8;
73973;PMS5003;62336;-26.094;27.994;2023-03-01T13:02:30;11;10;
73973;PMS5003;62336;-26.094;27.994;2023-03-01T13:04:58;10;8;
73973;PMS5003;62336;-26.094;27.994;2023-03-01T13:07:23;11;10;
73973;PMS5003;62336;-26.094;27.994;2023-03-01T13:09:46;9;9;
73973;PMS5003;62336;-26.094;27.994;2023-03-01T13:14:36;9;9;
73973;PMS5003;62336;-26.094;27.994;2023-03-01T13:17:00;10;9;
73973;PMS5003;62336;-26.094;27.994;2023-03-01T13:19:25;9;9;
73973;PMS5003;62336;-26.094;27.994;2023-03-01T13:21:50;9;9;
73973;PMS5003;62336;-26.094;27.994;2023-03-01T13:24:24;11;11;
73973;PMS5003;62336;-26.094;27.994;2023-03-01T13:29:11;12;11;
73973;PMS5003;62336;-26.094;27.994;2023-03-01T13:33:55;12;10;
73973;PMS5003;62336;-26.094;27.994;2023-03-01T13:38:46;12;12;
73973;PMS5003;62336;-26.094;27.994;2023-03-01T13:41:11;10;8;
73973;PMS5003;62336;-26.094;27.994;2023-03-01T13:43:37;9;9;
73973;PMS5003;62336;-26.094;27.994;2023-03-01T13:46:02;8;8;
73973;PMS5003;62336;-26.094;27.994;2023-03-01T13:48:27;8;6;
73973;PMS5003;62336;-26.094;27.994;2023-03-01T13:50:53;8;8;
73973;PMS5003;62336;-26.094;27.994;2023-03-01T13:53:17;7;7;
73973;PMS5003;62336;-26.094;27.994;2023-03-01T13:55:42;6;6;
73973;PMS5003;62336;-26.094;27.994;2023-03-01T14:00:34;6;6;
73973;PMS5003;62336;-26.094;27.994;2023-03-01T14:03:00;7;6;
73973;PMS5003;62336;-26.094;27.994;2023-03-01T14:05:21;7;5;
73973;PMS5003;62336;-26.094;27.994;2023-03-01T14:07:51;6;6;
73973;PMS5003;62336;-26.094;27.994;2023-03-01T14:10:11;6;6;
73973;PMS5003;62336;-26.094;27.994;2023-03-01T14:12:41;7;6;
73973;PMS5003;62336;-26.094;27.994;2023-03-01T14:15:02;5;5;
73973;PMS5003;62336;-26.094;27.994;2023-03-01T14:17:30;7;7;
73973;PMS5003;62336;-26.094;27.994;2023-03-01T14:19:55;5;5;
73973;PMS5003;62336;-26.094;27.994;2023-03-01T14:22:18;6;6;
73973;PMS5003;62336;-26.094;27.994;2023-03-01T14:24:44;5;5;
73973;PMS5003;62336;-26.094;27.994;2023-03-01T14:27:09;4;4;
73973;PMS5003;62336;-26.094;27.994;2023-03-01T14:29:34;5;5;
73973;PMS5003;62336;-26.094;27.994;2023-03-01T14:32:01;7;6;
73973;PMS5003;62336;-26.094;27.994;2023-03-01T14:34:23;6;6;
73973;PMS5003;62336;-26.094;27.994;2023-03-01T14:36:48;5;4;
73973;PMS5003;62336;-26.094;27.994;2023-03-01T14:39:17;6;6;
73973;PMS5003;62336;-26.094;27.994;2023-03-01T14:41:38;6;6;
73973;PMS5003;62336;-26.094;27.994;2023-03-01T14:44:03;5;4;
73973;PMS5003;62336;-26.094;27.994;2023-03-01T14:46:29;6;5;
73973;PMS5003;62336;-26.094;27.994;2023-03-01T14:48:54;6;6;
73973;PMS5003;62336;-26.094;27.994;2023-03-01T14:51:18;9;6;
73973;PMS5003;62336;-26.094;27.994;2023-03-01T14:53:43;7;7;
73973;PMS5003;62336;-26.094;27.994;2023-03-01T14:56:13;6;6;
73973;PMS5003;62336;-26.094;27.994;2023-03-01T14:58:33;9;7;
73973;PMS5003;62336;-26.094;27.994;2023-03-01T15:00:59;7;7;
73973;PMS5003;62336;-26.094;27.994;2023-03-01T15:03:25;7;7;
73973;PMS5003;62336;-26.094;27.994;2023-03-01T15:05:48;7;7;
73973;PMS5003;62336;-26.094;27.994;2023-03-01T15:08:16;6;6;
73973;PMS5003;62336;-26.094;27.994;2023-03-01T15:10:38;6;6;
73973;PMS5003;62336;-26.094;27.994;2023-03-01T15:13:12;7;6;
73973;PMS5003;62336;-26.094;27.994;2023-03-01T15:15:33;4;4;
73973;PMS5003;62336;-26.094;27.994;2023-03-01T15:17:54;5;5;
73973;PMS5003;62336;-26.094;27.994;2023-03-01T15:20:19;5;5;
73973;PMS5003;62336;-26.094;27.994;2023-03-01T15:22:44;6;5;
73973;PMS5003;62336;-26.094;27.994;2023-03-01T15:27:34;5;4;
73973;PMS5003;62336;-26.094;27.994;2023-03-01T15:29:59;4;4;
73973;PMS5003;62336;-26.094;27.994;2023-03-01T15:32:26;6;5;
73973;PMS5003;62336;-26.094;27.994;2023-03-01T15:34:49;6;6;
73973;PMS5003;62336;-26.094;27.994;2023-03-01T15:39:40;5;5;
73973;PMS5003;62336;-26.094;27.994;2023-03-01T15:42:05;5;5;
73973;PMS5003;62336;-26.094;27.994;2023-03-01T15:44:30;6;6;
73973;PMS5003;62336;-26.094;27.994;2023-03-01T15:46:54;3;3;
73973;PMS5003;62336;-26.094;27.994;2023-03-01T15:49:24;4;4;
73973;PMS5003;62336;-26.094;27.994;2023-03-01T15:51:45;5;5;
73973;PMS5003;62336;-26.094;27.994;2023-03-01T15:54:11;6;6;
73973;PMS5003;62336;-26.094;27.994;2023-03-01T15:56:34;5;5;
73973;PMS5003;62336;-26.094;27.994;2023-03-01T15:59:01;8;8;
73973;PMS5003;62336;-26.094;27.994;2023-03-01T16:01:25;5;5;
73973;PMS5003;62336;-26.094;27.994;2023-03-01T16:03:51;6;6;
73973;PMS5003;62336;-26.094;27.994;2023-03-01T16:06:17;8;6;
73973;PMS5003;62336;-26.094;27.994;2023-03-01T16:08:41;7;6;
73973;PMS5003;62336;-26.094;27.994;2023-03-01T16:11:09;5;5;
73973;PMS5003;62336;-26.094;27.994;2023-03-01T16:13:32;7;7;
73973;PMS5003;62336;-26.094;27.994;2023-03-01T16:15:57;6;5;
73973;PMS5003;62336;-26.094;27.994;2023-03-01T16:18:21;7;6;
73973;PMS5003;62336;-26.094;27.994;2023-03-01T16:20:47;7;6;
73973;PMS5003;62336;-26.094;27.994;2023-03-01T16:23:12;6;6;
73973;PMS5003;62336;-26.094;27.994;2023-03-01T16:25:37;6;5;
73973;PMS5003;62336;-26.094;27.994;2023-03-01T16:28:03;5;5;
73973;PMS5003;62336;-26.094;27.994;2023-03-01T16:30:27;7;6;
73973;PMS5003;62336;-26.094;27.994;2023-03-01T16:32:52;5;5;
73973;PMS5003;62336;-26.094;27.994;2023-03-01T16:35:18;9;7;
73973;PMS5003;62336;-26.094;27.994;2023-03-01T16:37:43;9;8;
73973;PMS5003;62336;-26.094;27.994;2023-03-01T16:40:14;5;5;
73973;PMS5003;62336;-26.094;27.994;2023-03-01T16:42:33;7;6;
73973;PMS5003;62336;-26.094;27.994;2023-03-01T16:44:57;8;8;
73973;PMS5003;62336;-26.094;27.994;2023-03-01T16:47:22;8;8;
73973;PMS5003;62336;-26.094;27.994;2023-03-01T16:49:48;8;7;
73973;PMS5003;62336;-26.094;27.994;2023-03-01T16:52:13;9;8;
73973;PMS5003;62336;-26.094;27.994;2023-03-01T16:54:38;9;9;
73973;PMS5003;62336;-26.094;27.994;2023-03-01T16:57:03;8;8;
73973;PMS5003;62336;-26.094;27.994;2023-03-01T16:59:28;6;6;
73973;PMS5003;62336;-26.094;27.994;2023-03-01T17:01:54;7;7;
73973;PMS5003;62336;-26.094;27.994;2023-03-01T17:04:19;8;8;
73973;PMS5003;62336;-26.094;27.994;2023-03-01T17:06:45;9;9;
73973;PMS5003;62336;-26.094;27.994;2023-03-01T17:09:10;8;8;
73973;PMS5003;62336;-26.094;27.994;2023-03-01T17:11:35;9;7;
73973;PMS5003;62336;-26.094;27.994;2023-03-01T17:14:00;9;7;
73973;PMS5003;62336;-26.094;27.994;2023-03-01T17:16:25;7;7;
73973;PMS5003;62336;-26.094;27.994;2023-03-01T17:18:50;9;8;
73973;PMS5003;62336;-26.094;27.994;2023-03-01T17:21:15;11;11;
73973;PMS5003;62336;-26.094;27.994;2023-03-01T17:23:41;8;8;
73973;PMS5003;62336;-26.094;27.994;2023-03-01T17:26:05;9;9;
73973;PMS5003;62336;-26.094;27.994;2023-03-01T17:28:31;7;7;
73973;PMS5003;62336;-26.094;27.994;2023-03-01T17:30:55;10;9;
73973;PMS5003;62336;-26.094;27.994;2023-03-01T17:33:20;10;9;
73973;PMS5003;62336;-26.094;27.994;2023-03-01T17:35:45;8;8;
73973;PMS5003;62336;-26.094;27.994;2023-03-01T17:38:10;11;10;
73973;PMS5003;62336;-26.094;27.994;2023-03-01T17:40:36;10;10;
73973;PMS5003;62336;-26.094;27.994;2023-03-01T17:43:00;9;9;
73973;PMS5003;62336;-26.094;27.994;2023-03-01T17:45:25;12;12;
73973;PMS5003;62336;-26.094;27.994;2023-03-01T17:47:50;9;8;
73973;PMS5003;62336;-26.094;27.994;2023-03-01T17:50:16;14;12;
73973;PMS5003;62336;-26.094;27.994;2023-03-01T17:52:42;11;11;
73973;PMS5003;62336;-26.094;27.994;2023-03-01T17:55:10;11;11;
73973;PMS5003;62336;-26.094;27.994;2023-03-01T17:57:33;10;10;
73973;PMS5003;62336;-26.094;27.994;2023-03-01T17:59:58;12;12;
73973;PMS5003;62336;-26.094;27.994;2023-03-01T18:02:23;13;11;
73973;PMS5003;62336;-26.094;27.994;2023-03-01T18:04:48;14;14;
73973;PMS5003;62336;-26.094;27.994;2023-03-01T18:07:13;11;10;
73973;PMS5003;62336;-26.094;27.994;2023-03-01T18:09:38;11;11;
73973;PMS5003;62336;-26.094;27.994;2023-03-01T18:12:03;13;11;
73973;PMS5003;62336;-26.094;27.994;2023-03-01T18:14:28;13;11;
73973;PMS5003;62336;-26.094;27.994;2023-03-01T18:16:53;12;12;
73973;PMS5003;62336;-26.094;27.994;2023-03-01T18:19:18;11;11;
73973;PMS5003;62336;-26.094;27.994;2023-03-01T18:21:44;15;13;
73973;PMS5003;62336;-26.094;27.994;2023-03-01T18:24:09;10;10;